createdAt,value
2017-04-17T00:00:30.484Z,47.60
2017-04-17T00:01:30.453Z,47.40
2017-04-17T00:02:30.521Z,47.60
2017-04-17T00:03:30.731Z,47.90
2017-04-17T00:04:30.685Z,48.20
2017-04-17T00:05:31.374Z,48.40
2017-04-17T00:06:31.325Z,48.30
2017-04-17T00:07:31.318Z,48.70
2017-04-17T00:08:31.325Z,48.60
2017-04-17T00:09:32.015Z,48.90
2017-04-17T00:10:32.024Z,48.80
2017-04-17T00:11:31.995Z,48.60
2017-04-17T00:12:31.986Z,48.80
2017-04-17T00:13:31.974Z,48.50
2017-04-17T00:14:32.661Z,48.90
2017-04-17T00:15:33.385Z,48.60
2017-04-17T00:16:33.346Z,48.80
2017-04-17T00:17:33.392Z,49.70
2017-04-17T00:18:33.597Z,49.40
2017-04-17T00:19:33.595Z,49.40
2017-04-17T00:20:33.561Z,49.50
2017-04-17T00:21:33.495Z,49.80
2017-04-17T00:22:33.481Z,49.70
2017-04-17T00:23:34.453Z,50.30
2017-04-17T00:24:34.417Z,49.70
2017-04-17T00:25:35.119Z,50.10
2017-04-17T00:26:35.042Z,50.20
2017-04-17T00:27:35.715Z,50.10
2017-04-17T00:28:36.433Z,50.30
2017-04-17T00:29:36.401Z,50.20
2017-04-17T00:30:36.341Z,50.10
2017-04-17T00:31:36.298Z,50.00
2017-04-17T00:32:36.989Z,50.10
2017-04-17T00:33:37.184Z,50.40
2017-04-17T00:34:37.181Z,50.60
2017-04-17T00:35:37.149Z,50.70
2017-04-17T00:36:37.809Z,50.80
2017-04-17T00:37:37.806Z,50.90
2017-04-17T00:38:37.791Z,51.30
2017-04-17T00:39:37.753Z,51.00
2017-04-17T00:40:37.752Z,50.90
2017-04-17T00:41:37.697Z,50.80
2017-04-17T00:42:38.401Z,50.70
2017-04-17T00:43:38.423Z,50.70
2017-04-17T00:44:38.381Z,50.70
2017-04-17T00:45:38.368Z,50.60
2017-04-17T00:46:38.321Z,51.10
2017-04-17T00:47:38.290Z,50.50
2017-04-17T00:48:38.242Z,50.60
2017-04-17T00:49:38.198Z,50.90
2017-04-17T00:50:38.132Z,51.10
2017-04-17T00:51:38.100Z,50.90
2017-04-17T00:52:38.047Z,51.00
2017-04-17T00:53:38.145Z,50.70
2017-04-17T00:54:38.113Z,50.40
2017-04-17T00:55:38.062Z,50.30
2017-04-17T00:56:38.011Z,50.00
2017-04-17T00:57:37.963Z,49.40
2017-04-17T00:58:37.909Z,48.90
2017-04-17T00:59:38.017Z,49.00
2017-04-17T01:00:37.969Z,48.80
2017-04-17T01:01:37.963Z,49.10
2017-04-17T01:02:37.894Z,49.30
2017-04-17T01:03:37.869Z,49.40
2017-04-17T01:04:37.884Z,49.50
2017-04-17T01:05:37.909Z,49.30
2017-04-17T01:06:38.187Z,49.30
2017-04-17T01:07:38.138Z,49.20
2017-04-17T01:08:38.089Z,49.50
2017-04-17T01:09:38.779Z,49.40
2017-04-17T01:10:38.778Z,49.40
2017-04-17T01:11:38.732Z,49.10
2017-04-17T01:12:38.706Z,48.50
2017-04-17T01:13:38.685Z,48.50
2017-04-17T01:14:38.623Z,48.50
2017-04-17T01:15:38.589Z,48.70
2017-04-17T01:16:38.556Z,49.10
2017-04-17T01:17:38.559Z,49.00
2017-04-17T01:18:39.268Z,49.00
2017-04-17T01:19:39.272Z,48.80
2017-04-17T01:20:39.295Z,48.70
2017-04-17T01:21:40.051Z,48.70
2017-04-17T01:22:40.033Z,48.20
2017-04-17T01:23:40.021Z,48.20
2017-04-17T01:24:39.986Z,48.80
2017-04-17T01:25:39.932Z,48.70
2017-04-17T01:26:39.912Z,48.80
2017-04-17T01:27:39.956Z,49.10
2017-04-17T01:28:40.703Z,49.10
2017-04-17T01:29:40.668Z,48.50
2017-04-17T01:30:40.685Z,48.00
2017-04-17T01:31:40.678Z,48.40
2017-04-17T01:32:40.705Z,48.50
2017-04-17T01:33:41.372Z,48.50
2017-04-17T01:34:41.360Z,48.50
2017-04-17T01:35:41.339Z,48.00
2017-04-17T01:36:41.978Z,47.80
2017-04-17T01:37:41.953Z,48.10
2017-04-17T01:38:41.913Z,48.40
2017-04-17T01:39:41.902Z,48.40
2017-04-17T01:40:41.874Z,48.70
2017-04-17T01:41:41.805Z,48.30
2017-04-17T01:42:41.798Z,49.00
2017-04-17T01:43:42.492Z,48.80
2017-04-17T01:44:42.462Z,48.10
2017-04-17T01:45:42.623Z,48.10
2017-04-17T01:46:42.600Z,48.10
2017-04-17T01:47:42.528Z,48.20
2017-04-17T01:48:42.471Z,48.30
2017-04-17T01:49:42.436Z,48.50
2017-04-17T01:50:42.385Z,48.80
2017-04-17T01:51:42.638Z,48.90
2017-04-17T01:52:42.580Z,48.80
2017-04-17T01:53:42.504Z,48.70
2017-04-17T01:54:42.457Z,48.50
2017-04-17T01:55:42.397Z,48.30
2017-04-17T01:56:42.350Z,48.20
2017-04-17T01:57:42.388Z,48.20
2017-04-17T01:58:42.351Z,48.00
2017-04-17T01:59:42.293Z,48.00
2017-04-17T02:00:42.255Z,48.00
2017-04-17T02:01:42.311Z,48.00
2017-04-17T02:02:42.297Z,48.20
2017-04-17T02:03:42.261Z,48.30
2017-04-17T02:04:42.209Z,48.20
2017-04-17T02:05:42.237Z,48.50
2017-04-17T02:06:42.219Z,48.20
2017-04-17T02:07:42.173Z,47.70
2017-04-17T02:08:42.128Z,47.90
2017-04-17T02:09:42.089Z,48.20
2017-04-17T02:10:42.828Z,47.90
2017-04-17T02:11:42.769Z,47.70
2017-04-17T02:12:42.826Z,47.70
2017-04-17T02:13:42.812Z,47.90
2017-04-17T02:14:42.790Z,48.20
2017-04-17T02:15:42.752Z,48.00
2017-04-17T02:16:43.489Z,47.70
2017-04-17T02:17:43.467Z,47.70
2017-04-17T02:18:44.139Z,47.70
2017-04-17T02:19:44.100Z,48.00
2017-04-17T02:20:44.785Z,48.20
2017-04-17T02:21:44.718Z,48.50
2017-04-17T02:22:44.714Z,48.50
2017-04-17T02:23:44.636Z,48.40
2017-04-17T02:24:45.350Z,48.30
2017-04-17T02:25:45.303Z,48.40
2017-04-17T02:26:45.389Z,48.30
2017-04-17T02:27:45.369Z,48.10
2017-04-17T02:28:45.349Z,48.30
2017-04-17T02:29:45.300Z,48.40
2017-04-17T02:30:45.969Z,48.60
2017-04-17T02:31:45.976Z,48.30
2017-04-17T02:32:45.980Z,48.30
2017-04-17T02:33:45.933Z,48.50
2017-04-17T02:34:46.591Z,48.30
2017-04-17T02:35:46.512Z,48.70
2017-04-17T02:36:46.573Z,48.80
2017-04-17T02:37:47.351Z,48.60
2017-04-17T02:38:47.272Z,49.10
2017-04-17T02:39:47.260Z,49.80
2017-04-17T02:40:47.241Z,50.10
2017-04-17T02:41:47.221Z,50.10
2017-04-17T02:42:47.209Z,50.00
2017-04-17T02:43:47.153Z,50.20
2017-04-17T02:44:47.107Z,50.20
2017-04-17T02:45:47.058Z,50.00
2017-04-17T02:46:47.012Z,49.50
2017-04-17T02:47:47.053Z,50.10
2017-04-17T02:48:47.007Z,50.00
2017-04-17T02:49:47.014Z,50.30
2017-04-17T02:50:47.247Z,50.20
2017-04-17T02:51:47.959Z,50.00
2017-04-17T02:52:48.302Z,49.80
2017-04-17T02:53:48.262Z,49.70
2017-04-17T02:54:48.209Z,49.80
2017-04-17T02:55:48.130Z,49.80
2017-04-17T02:56:48.060Z,49.50
2017-04-17T02:57:48.030Z,49.60
2017-04-17T02:58:48.205Z,49.40
2017-04-17T02:59:48.136Z,49.60
2017-04-17T03:00:48.122Z,49.80
2017-04-17T03:01:48.084Z,49.80
2017-04-17T03:02:48.766Z,50.10
2017-04-17T03:03:48.785Z,50.50
2017-04-17T03:04:49.051Z,50.70
2017-04-17T03:05:48.997Z,51.10
2017-04-17T03:06:48.971Z,51.30
2017-04-17T03:07:48.971Z,51.10
2017-04-17T03:08:49.106Z,51.30
2017-04-17T03:09:49.085Z,51.60
2017-04-17T03:10:49.674Z,51.60
2017-04-17T03:11:50.290Z,51.80
2017-04-17T03:12:50.719Z,52.50
2017-04-17T03:13:51.347Z,52.70
2017-04-17T03:14:51.892Z,53.10
2017-04-17T03:15:52.475Z,53.20
2017-04-17T03:16:52.928Z,53.40
2017-04-17T03:17:53.338Z,53.10
2017-04-17T03:18:53.780Z,53.50
2017-04-17T03:19:54.251Z,53.60
2017-04-17T03:20:54.645Z,53.80
2017-04-17T03:21:55.529Z,54.00
2017-04-17T03:22:55.485Z,54.10
2017-04-17T03:23:56.212Z,54.60
2017-04-17T03:24:56.977Z,55.00
2017-04-17T03:25:56.921Z,55.70
2017-04-17T03:26:56.872Z,55.80
2017-04-17T03:27:56.823Z,56.00
2017-04-17T03:28:56.829Z,55.70
2017-04-17T03:29:56.805Z,55.50
2017-04-17T03:30:56.749Z,55.30
2017-04-17T03:31:56.775Z,55.20
2017-04-17T03:32:56.729Z,54.90
2017-04-17T03:33:56.694Z,54.80
2017-04-17T03:34:57.673Z,54.70
2017-04-17T03:35:57.628Z,54.90
2017-04-17T03:36:58.327Z,54.70
2017-04-17T03:37:58.244Z,54.40
2017-04-17T03:38:58.893Z,54.40
2017-04-17T03:39:58.957Z,54.60
2017-04-17T03:40:58.900Z,54.80
2017-04-17T03:41:58.861Z,55.30
2017-04-17T03:42:58.812Z,55.80
2017-04-17T03:43:58.757Z,55.90
2017-04-17T03:44:58.809Z,56.10
2017-04-17T03:45:59.478Z,56.60
2017-04-17T03:46:59.412Z,56.80
2017-04-17T03:47:59.427Z,56.80
2017-04-17T03:48:59.358Z,56.90
2017-04-17T03:49:59.336Z,57.10
2017-04-17T03:50:59.296Z,57.00
2017-04-17T03:51:59.245Z,56.90
2017-04-17T03:52:59.208Z,57.00
2017-04-17T03:53:59.164Z,57.00
2017-04-17T03:54:59.122Z,56.80
2017-04-17T03:55:59.084Z,57.10
2017-04-17T03:56:59.050Z,57.20
2017-04-17T03:57:59.035Z,57.30
2017-04-17T03:58:59.038Z,57.50
2017-04-17T03:59:59.063Z,57.30
2017-04-17T04:00:59.058Z,57.20
2017-04-17T04:01:59.009Z,56.70
2017-04-17T04:02:58.949Z,56.70
2017-04-17T04:03:58.919Z,57.00
2017-04-17T04:04:59.225Z,56.60
2017-04-17T04:05:59.234Z,56.90
2017-04-17T04:06:59.169Z,57.10
2017-04-17T04:07:59.114Z,57.40
2017-04-17T04:08:59.062Z,57.60
2017-04-17T04:09:59.062Z,57.80
2017-04-17T04:10:59.049Z,57.70
2017-04-17T04:11:59.721Z,57.50
2017-04-17T04:13:00.388Z,57.60
2017-04-17T04:14:00.354Z,57.30
2017-04-17T04:15:00.345Z,57.20
2017-04-17T04:16:00.308Z,57.20
2017-04-17T04:17:04.840Z,57.40
2017-04-17T04:18:04.841Z,57.40
2017-04-17T04:19:04.791Z,57.50
2017-04-17T04:20:04.755Z,57.50
2017-04-17T04:21:04.773Z,57.60
2017-04-17T04:22:04.720Z,57.50
2017-04-17T04:23:04.767Z,57.30
2017-04-17T04:24:04.694Z,57.10
2017-04-17T04:25:04.700Z,56.90
2017-04-17T04:26:04.705Z,57.40
2017-04-17T04:27:05.368Z,57.50
2017-04-17T04:28:05.400Z,57.60
2017-04-17T04:29:05.345Z,57.30
2017-04-17T04:30:05.348Z,57.40
2017-04-17T04:31:05.294Z,57.10
2017-04-17T04:32:05.245Z,57.30
2017-04-17T04:33:05.968Z,57.60
2017-04-17T04:34:05.947Z,57.80
2017-04-17T04:35:05.892Z,58.40
2017-04-17T04:36:05.885Z,58.30
2017-04-17T04:37:05.845Z,58.10
2017-04-17T04:38:05.815Z,58.20
2017-04-17T04:39:05.887Z,58.40
2017-04-17T04:40:05.825Z,58.80
2017-04-17T04:41:05.891Z,58.60
2017-04-17T04:42:05.833Z,58.20
2017-04-17T04:43:05.769Z,58.40
2017-04-17T04:44:05.741Z,58.60
2017-04-17T04:45:05.725Z,58.20
2017-04-17T04:46:05.705Z,58.30
2017-04-17T04:47:05.693Z,58.20
2017-04-17T04:48:06.386Z,58.30
2017-04-17T04:49:06.349Z,58.30
2017-04-17T04:50:06.323Z,58.00
2017-04-17T04:51:06.321Z,57.40
2017-04-17T04:52:07.371Z,58.00
2017-04-17T04:53:07.293Z,57.30
2017-04-17T04:54:07.236Z,56.30
2017-04-17T04:55:07.231Z,56.20
2017-04-17T04:56:07.288Z,56.40
2017-04-17T04:57:07.255Z,56.40
2017-04-17T04:58:07.183Z,56.80
2017-04-17T04:59:07.190Z,56.10
2017-04-17T05:00:07.220Z,57.20
2017-04-17T05:01:07.185Z,56.90
2017-04-17T05:02:07.163Z,55.40
2017-04-17T05:03:07.154Z,55.30
2017-04-17T05:04:07.068Z,55.40
2017-04-17T05:05:07.110Z,55.70
2017-04-17T05:06:07.097Z,55.90
2017-04-17T05:07:07.057Z,55.90
2017-04-17T05:08:07.718Z,56.30
2017-04-17T05:09:07.668Z,56.60
2017-04-17T05:10:07.649Z,57.10
2017-04-17T05:11:07.605Z,57.30
2017-04-17T05:12:07.565Z,57.00
2017-04-17T05:13:07.513Z,57.00
2017-04-17T05:14:07.464Z,57.20
2017-04-17T05:15:07.487Z,57.00
2017-04-17T05:16:07.446Z,56.90
2017-04-17T05:17:07.352Z,56.90
2017-04-17T05:18:07.293Z,56.70
2017-04-17T05:19:07.246Z,56.80
2017-04-17T05:20:07.253Z,56.50
2017-04-17T05:21:07.201Z,57.00
2017-04-17T05:22:07.157Z,56.60
2017-04-17T05:23:07.086Z,56.80
2017-04-17T05:24:07.007Z,56.80
2017-04-17T05:25:07.012Z,56.20
2017-04-17T05:26:07.006Z,55.80
2017-04-17T05:27:06.937Z,55.80
2017-04-17T05:28:06.880Z,56.10
2017-04-17T05:29:07.608Z,55.80
2017-04-17T05:30:08.297Z,56.70
2017-04-17T05:31:08.280Z,57.40
2017-04-17T05:32:08.297Z,57.30
2017-04-17T05:33:08.243Z,56.50
2017-04-17T05:34:08.189Z,55.90
2017-04-17T05:35:08.158Z,55.20
2017-04-17T05:36:09.349Z,55.10
2017-04-17T05:37:09.712Z,55.20
2017-04-17T05:38:10.124Z,55.50
2017-04-17T05:39:11.573Z,56.10
2017-04-17T05:40:12.387Z,56.90
2017-04-17T05:41:12.400Z,56.70
2017-04-17T05:42:13.076Z,56.70
2017-04-17T05:43:13.048Z,56.60
2017-04-17T05:44:13.002Z,56.20
2017-04-17T05:45:12.941Z,56.00
2017-04-17T05:46:13.661Z,56.40
2017-04-17T05:47:14.319Z,56.30
2017-04-17T05:48:14.281Z,56.00
2017-04-17T05:49:14.978Z,55.90
2017-04-17T05:50:14.902Z,55.70
2017-04-17T05:51:14.961Z,56.00
2017-04-17T05:52:14.920Z,56.20
2017-04-17T05:53:14.911Z,56.10
2017-04-17T05:54:14.930Z,56.10
2017-04-17T05:55:14.888Z,56.30
2017-04-17T05:56:14.965Z,56.20
2017-04-17T05:57:14.977Z,55.80
2017-04-17T05:58:15.032Z,56.10
2017-04-17T05:59:15.007Z,54.90
2017-04-17T06:00:14.954Z,55.10
2017-04-17T06:01:15.632Z,55.70
2017-04-17T06:02:15.646Z,55.60
2017-04-17T06:03:15.600Z,54.60
2017-04-17T06:04:15.532Z,55.00
2017-04-17T06:05:15.484Z,55.30
2017-04-17T06:06:15.464Z,55.40
2017-04-17T06:07:15.452Z,54.30
2017-04-17T06:08:15.410Z,54.10
2017-04-17T06:09:15.408Z,54.20
2017-04-17T06:10:15.321Z,54.10
2017-04-17T06:11:15.247Z,54.10
2017-04-17T06:12:15.211Z,54.40
2017-04-17T06:13:15.433Z,55.30
2017-04-17T06:14:15.392Z,55.10
2017-04-17T06:15:16.109Z,55.10
2017-04-17T06:16:16.596Z,55.10
2017-04-17T06:17:16.545Z,55.60
2017-04-17T06:18:17.244Z,56.40
2017-04-17T06:19:17.193Z,56.20
2017-04-17T06:20:17.177Z,55.00
2017-04-17T06:21:17.901Z,55.10
2017-04-17T06:22:18.597Z,55.20
2017-04-17T06:23:18.971Z,55.60
2017-04-17T06:24:18.918Z,55.20
2017-04-17T06:25:18.906Z,55.20
2017-04-17T06:26:19.798Z,54.60
2017-04-17T06:27:19.739Z,53.90
2017-04-17T06:28:19.687Z,54.10
2017-04-17T06:29:20.813Z,53.10
2017-04-17T06:30:20.787Z,52.90
2017-04-17T06:31:20.770Z,52.60
2017-04-17T06:32:20.715Z,51.00
2017-04-17T06:33:20.705Z,50.70
2017-04-17T06:34:20.675Z,50.90
2017-04-17T06:35:20.637Z,50.00
2017-04-17T06:36:20.657Z,50.20
2017-04-17T06:37:21.465Z,49.90
2017-04-17T06:38:21.404Z,49.80
2017-04-17T06:39:21.338Z,50.30
2017-04-17T06:40:21.300Z,50.80
2017-04-17T06:41:22.001Z,50.50
2017-04-17T06:42:21.986Z,49.80
2017-04-17T06:43:21.929Z,49.20
2017-04-17T06:44:21.881Z,49.00
2017-04-17T06:45:21.886Z,48.40
2017-04-17T06:46:21.858Z,48.80
2017-04-17T06:47:22.613Z,49.00
2017-04-17T06:48:22.580Z,48.70
2017-04-17T06:49:22.513Z,48.50
2017-04-17T06:50:22.489Z,48.10
2017-04-17T06:51:22.485Z,48.50
2017-04-17T06:52:22.557Z,48.60
2017-04-17T06:53:22.538Z,47.80
2017-04-17T06:54:22.485Z,48.00
2017-04-17T06:55:23.225Z,47.50
2017-04-17T06:56:23.206Z,46.50
2017-04-17T06:57:23.294Z,46.90
2017-04-17T06:58:23.293Z,46.80
2017-04-17T06:59:23.285Z,46.80
2017-04-17T07:00:23.256Z,45.80
2017-04-17T07:01:23.263Z,45.20
2017-04-17T07:02:23.404Z,45.30
2017-04-17T07:03:24.085Z,46.20
2017-04-17T07:04:24.172Z,46.50
2017-04-17T07:05:24.168Z,46.00
2017-04-17T07:06:24.093Z,45.60
2017-04-17T07:07:24.045Z,44.70
2017-04-17T07:08:24.770Z,45.50
2017-04-17T07:09:25.537Z,44.40
2017-04-17T07:10:25.521Z,43.70
2017-04-17T07:11:25.461Z,44.20
2017-04-17T07:12:25.438Z,44.60
2017-04-17T07:13:25.390Z,44.80
2017-04-17T07:14:25.517Z,45.10
2017-04-17T07:15:25.504Z,45.30
2017-04-17T07:16:25.449Z,44.80
2017-04-17T07:17:26.185Z,45.10
2017-04-17T07:18:26.196Z,45.60
2017-04-17T07:19:26.179Z,45.70
2017-04-17T07:20:26.909Z,45.30
2017-04-17T07:21:26.872Z,45.70
2017-04-17T07:22:26.870Z,44.90
2017-04-17T07:23:26.853Z,44.80
2017-04-17T07:24:26.852Z,44.60
2017-04-17T07:25:26.876Z,44.60
2017-04-17T07:26:26.857Z,44.80
2017-04-17T07:27:26.829Z,45.00
2017-04-17T07:28:26.785Z,44.50
2017-04-17T07:29:26.741Z,43.90
2017-04-17T07:30:26.712Z,43.80
2017-04-17T07:31:26.693Z,43.60
2017-04-17T07:32:27.088Z,44.00
2017-04-17T07:33:27.057Z,44.40
2017-04-17T07:34:27.036Z,43.80
2017-04-17T07:35:27.014Z,43.80
2017-04-17T07:36:27.027Z,44.10
2017-04-17T07:37:27.004Z,44.00
2017-04-17T07:38:26.929Z,44.10
2017-04-17T07:39:26.880Z,43.60
2017-04-17T07:40:26.817Z,43.70
2017-04-17T07:41:26.770Z,43.80
2017-04-17T07:42:26.740Z,44.00
2017-04-17T07:43:27.738Z,44.20
2017-04-17T07:44:27.779Z,43.70
2017-04-17T07:45:27.775Z,43.40
2017-04-17T07:46:27.717Z,44.40
2017-04-17T07:47:27.673Z,44.50
2017-04-17T07:48:27.701Z,44.50
2017-04-17T07:49:28.793Z,44.40
2017-04-17T07:50:28.802Z,44.10
2017-04-17T07:51:28.744Z,43.80
2017-04-17T07:52:29.421Z,43.50
2017-04-17T07:53:29.360Z,43.40
2017-04-17T07:54:29.419Z,43.50
2017-04-17T07:55:29.400Z,43.70
2017-04-17T07:56:30.285Z,44.60
2017-04-17T07:57:30.228Z,44.30
2017-04-17T07:58:30.953Z,44.20
2017-04-17T07:59:31.773Z,44.00
2017-04-17T08:00:31.745Z,43.20
2017-04-17T08:01:31.740Z,43.20
2017-04-17T08:02:31.794Z,43.80
2017-04-17T08:03:32.502Z,43.20
2017-04-17T08:04:32.550Z,42.90
2017-04-17T08:05:32.600Z,42.00
2017-04-17T08:06:32.789Z,42.00
2017-04-17T08:07:32.742Z,41.90
2017-04-17T08:08:32.748Z,42.10
2017-04-17T08:09:32.784Z,42.40
2017-04-17T08:10:32.761Z,42.60
2017-04-17T08:11:33.036Z,42.20
2017-04-17T08:12:33.836Z,41.00
2017-04-17T08:13:33.853Z,40.60
2017-04-17T08:14:33.888Z,40.70
2017-04-17T08:15:33.933Z,41.30
2017-04-17T08:16:34.649Z,40.90
2017-04-17T08:17:35.313Z,41.30
2017-04-17T08:18:35.296Z,41.10
2017-04-17T08:19:35.213Z,41.90
2017-04-17T08:20:35.158Z,43.00
2017-04-17T08:21:35.138Z,43.30
2017-04-17T08:22:35.124Z,42.90
2017-04-17T08:23:35.058Z,42.80
2017-04-17T08:24:35.995Z,42.40
2017-04-17T08:25:36.694Z,42.60
2017-04-17T08:26:36.638Z,42.10
2017-04-17T08:27:36.706Z,42.50
2017-04-17T08:28:36.668Z,42.70
2017-04-17T08:29:36.777Z,42.10
2017-04-17T08:30:36.729Z,41.50
2017-04-17T08:31:36.704Z,41.60
2017-04-17T08:32:36.685Z,41.10
2017-04-17T08:33:43.343Z,42.10
2017-04-17T08:34:43.364Z,42.00
2017-04-17T08:35:43.337Z,42.20
2017-04-17T08:36:43.329Z,41.80
2017-04-17T08:37:43.426Z,41.20
2017-04-17T08:38:43.452Z,41.00
2017-04-17T08:39:43.564Z,40.80
2017-04-17T08:40:43.517Z,41.00
2017-04-17T08:41:44.228Z,41.20
2017-04-17T08:42:44.904Z,41.00
2017-04-17T08:43:44.892Z,40.20
2017-04-17T08:44:44.960Z,40.60
2017-04-17T08:45:44.913Z,41.20
2017-04-17T08:46:44.861Z,41.50
2017-04-17T08:47:44.808Z,40.90
2017-04-17T08:48:44.845Z,40.30
2017-04-17T08:49:44.930Z,40.80
2017-04-17T08:50:44.952Z,40.40
2017-04-17T08:51:44.953Z,39.40
2017-04-17T08:52:44.915Z,38.90
2017-04-17T08:53:44.845Z,39.10
2017-04-17T08:54:45.692Z,39.20
2017-04-17T08:55:45.693Z,39.00
2017-04-17T08:56:45.692Z,39.00
2017-04-17T08:57:45.648Z,39.50
2017-04-17T08:58:45.601Z,40.00
2017-04-17T08:59:45.541Z,40.70
2017-04-17T09:00:45.524Z,41.00
2017-04-17T09:01:45.496Z,40.70
2017-04-17T09:02:46.227Z,41.20
2017-04-17T09:03:47.000Z,41.80
2017-04-17T09:04:47.265Z,40.20
2017-04-17T09:05:47.996Z,40.90
2017-04-17T09:06:48.677Z,41.30
2017-04-17T09:07:48.681Z,40.90
2017-04-17T09:08:48.651Z,40.10
2017-04-17T09:09:48.617Z,39.70
2017-04-17T09:10:48.629Z,38.90
2017-04-17T09:11:48.592Z,38.50
2017-04-17T09:12:48.561Z,38.70
2017-04-17T09:13:49.249Z,38.80
2017-04-17T09:14:49.200Z,38.80
2017-04-17T09:15:49.182Z,38.40
2017-04-17T09:16:49.848Z,38.50
2017-04-17T09:17:49.825Z,38.30
2017-04-17T09:18:50.501Z,37.50
2017-04-17T09:19:50.460Z,36.80
2017-04-17T09:20:50.474Z,36.80
2017-04-17T09:21:50.459Z,37.80
2017-04-17T09:22:51.136Z,40.10
2017-04-17T09:23:51.813Z,40.80
2017-04-17T09:24:51.746Z,40.40
2017-04-17T09:25:51.724Z,40.80
2017-04-17T09:26:51.673Z,40.10
2017-04-17T09:27:51.671Z,38.90
2017-04-17T09:28:51.608Z,38.20
2017-04-17T09:29:51.601Z,37.20
2017-04-17T09:30:51.553Z,36.00
2017-04-17T09:31:52.244Z,35.50
2017-04-17T09:32:52.161Z,34.60
2017-04-17T09:33:52.101Z,35.20
2017-04-17T09:34:52.133Z,34.90
2017-04-17T09:35:52.061Z,34.80
2017-04-17T09:36:51.994Z,35.50
2017-04-17T09:37:52.678Z,35.10
2017-04-17T09:38:52.608Z,34.50
2017-04-17T09:39:52.656Z,35.30
2017-04-17T09:40:52.584Z,35.30
2017-04-17T09:41:52.578Z,35.40
2017-04-17T09:42:52.529Z,35.60
2017-04-17T09:43:52.481Z,34.40
2017-04-17T09:44:52.477Z,36.00
2017-04-17T09:45:52.429Z,35.70
2017-04-17T09:46:53.141Z,32.90
2017-04-17T09:47:53.084Z,31.80
2017-04-17T09:48:53.013Z,32.10
2017-04-17T09:49:53.160Z,32.00
2017-04-17T09:50:53.169Z,32.50
2017-04-17T09:51:53.224Z,32.30
2017-04-17T09:52:53.160Z,31.30
2017-04-17T09:53:53.113Z,30.70
2017-04-17T09:54:53.110Z,30.90
2017-04-17T09:55:53.045Z,31.60
2017-04-17T09:56:52.969Z,31.10
2017-04-17T09:57:52.919Z,31.40
2017-04-17T09:58:52.891Z,31.40
2017-04-17T09:59:52.878Z,31.10
2017-04-17T10:00:52.892Z,30.40
2017-04-17T10:01:52.826Z,31.30
2017-04-17T10:02:52.797Z,31.80
2017-04-17T10:03:52.749Z,31.40
2017-04-17T10:04:53.520Z,32.10
2017-04-17T10:05:53.530Z,31.70
2017-04-17T10:06:54.233Z,31.90
2017-04-17T10:07:54.221Z,31.90
2017-04-17T10:08:54.164Z,31.90
2017-04-17T10:09:54.129Z,32.30
2017-04-17T10:10:54.232Z,30.00
2017-04-17T10:11:54.205Z,31.40
2017-04-17T10:12:54.168Z,31.10
2017-04-17T10:13:54.119Z,29.10
2017-04-17T10:14:54.227Z,29.00
2017-04-17T10:15:54.146Z,29.40
2017-04-17T10:16:54.109Z,29.80
2017-04-17T10:17:54.810Z,29.50
2017-04-17T10:18:54.736Z,29.90
2017-04-17T10:19:55.613Z,30.30
2017-04-17T10:20:55.566Z,30.10
2017-04-17T10:21:56.225Z,30.90
2017-04-17T10:22:56.187Z,30.30
2017-04-17T10:23:56.129Z,29.90
2017-04-17T10:24:56.182Z,30.60
2017-04-17T10:25:56.169Z,30.70
2017-04-17T10:26:56.122Z,30.90
2017-04-17T10:27:56.161Z,30.60
2017-04-17T10:28:56.125Z,30.90
2017-04-17T10:29:56.190Z,31.60
2017-04-17T10:30:56.149Z,32.20
2017-04-17T10:31:56.082Z,32.50
2017-04-17T10:32:56.161Z,32.90
2017-04-17T10:33:56.313Z,34.60
2017-04-17T10:34:56.252Z,35.70
2017-04-17T10:35:56.232Z,36.90
2017-04-17T10:36:56.204Z,35.80
2017-04-17T10:37:56.149Z,36.60
2017-04-17T10:38:56.086Z,39.80
2017-04-17T10:39:56.092Z,44.20
2017-04-17T10:40:56.065Z,44.40
2017-04-17T10:41:55.978Z,43.30
2017-04-17T10:42:55.955Z,42.60
2017-04-17T10:43:55.958Z,44.20
2017-04-17T10:44:55.969Z,44.00
2017-04-17T10:45:55.945Z,44.70
2017-04-17T10:46:56.638Z,43.80
2017-04-17T10:47:59.577Z,44.80
2017-04-17T10:48:59.625Z,44.70
2017-04-17T10:49:59.579Z,45.40
2017-04-17T10:50:59.558Z,45.40
2017-04-17T10:52:00.267Z,47.80
2017-04-17T10:53:00.228Z,44.20
2017-04-17T10:54:00.290Z,45.10
2017-04-17T10:55:00.223Z,42.00
2017-04-17T10:56:00.192Z,42.20
2017-04-17T10:57:00.143Z,42.50
2017-04-17T10:58:00.112Z,42.50
2017-04-17T10:59:00.093Z,42.00
2017-04-17T11:00:00.029Z,39.80
2017-04-17T11:01:00.065Z,37.60
2017-04-17T11:02:00.006Z,39.40
2017-04-17T11:02:59.978Z,39.00
2017-04-17T11:03:59.930Z,39.80
2017-04-17T11:04:59.959Z,39.90
2017-04-17T11:06:00.656Z,39.20
2017-04-17T11:07:00.624Z,39.50
2017-04-17T11:08:00.592Z,39.60
2017-04-17T11:09:00.531Z,40.70
2017-04-17T11:10:00.551Z,41.30
2017-04-17T11:11:00.482Z,40.50
2017-04-17T11:12:00.455Z,41.10
2017-04-17T11:13:00.405Z,41.00
2017-04-17T11:14:00.472Z,41.70
2017-04-17T11:15:00.454Z,41.60
2017-04-17T11:16:01.185Z,39.90
2017-04-17T11:17:01.183Z,38.80
2017-04-17T11:18:01.192Z,40.60
2017-04-17T11:19:01.869Z,40.40
2017-04-17T11:20:01.809Z,40.10
2017-04-17T11:21:02.620Z,39.70
2017-04-17T11:22:02.601Z,40.80
2017-04-17T11:23:02.562Z,41.60
2017-04-17T11:24:02.511Z,42.20
2017-04-17T11:25:02.453Z,40.80
2017-04-17T11:26:03.161Z,41.60
2017-04-17T11:27:03.161Z,42.50
2017-04-17T11:28:03.162Z,42.20
2017-04-17T11:29:03.793Z,41.20
2017-04-17T11:30:03.737Z,41.20
2017-04-17T11:31:03.782Z,41.80
2017-04-17T11:32:03.822Z,42.40
2017-04-17T11:33:03.765Z,42.30
2017-04-17T11:34:03.733Z,40.10
2017-04-17T11:35:03.724Z,41.40
2017-04-17T11:36:03.679Z,41.40
2017-04-17T11:37:04.113Z,41.50
2017-04-17T11:38:04.098Z,40.90
2017-04-17T11:39:04.343Z,40.60
2017-04-17T11:40:04.313Z,41.10
2017-04-17T11:41:04.254Z,41.40
2017-04-17T11:42:04.226Z,41.40
2017-04-17T11:43:04.205Z,41.20
2017-04-17T11:44:04.183Z,39.90
2017-04-17T11:45:04.174Z,40.20
2017-04-17T11:46:04.124Z,39.60
2017-04-17T11:47:04.085Z,39.70
2017-04-17T11:48:04.196Z,39.00
2017-04-17T11:49:04.253Z,38.80
2017-04-17T11:50:04.185Z,39.50
2017-04-17T11:51:04.183Z,39.80
2017-04-17T11:52:04.168Z,39.60
2017-04-17T11:53:04.857Z,41.70
2017-04-17T11:54:04.840Z,39.00
2017-04-17T11:55:04.818Z,39.80
2017-04-17T11:56:05.500Z,39.40
2017-04-17T11:57:05.437Z,39.70
2017-04-17T11:58:06.156Z,39.50
2017-04-17T11:59:06.193Z,39.70
2017-04-17T12:00:06.240Z,38.70
2017-04-17T12:01:06.962Z,37.50
2017-04-17T12:02:06.964Z,37.50
2017-04-17T12:03:06.890Z,38.60
2017-04-17T12:04:06.875Z,38.40
2017-04-17T12:05:07.603Z,38.30
2017-04-17T12:06:07.516Z,37.50
2017-04-17T12:07:07.517Z,37.30
2017-04-17T12:08:07.445Z,38.00
2017-04-17T12:09:07.558Z,36.40
2017-04-17T12:10:07.545Z,35.80
2017-04-17T12:11:07.487Z,35.60
2017-04-17T12:12:08.218Z,35.30
2017-04-17T12:13:08.186Z,35.20
2017-04-17T12:14:08.157Z,34.50
2017-04-17T12:15:08.178Z,34.30
2017-04-17T12:16:08.109Z,33.50
2017-04-17T12:17:08.082Z,34.20
2017-04-17T12:18:08.009Z,34.20
2017-04-17T12:19:08.058Z,33.70
2017-04-17T12:20:08.313Z,34.30
2017-04-17T12:21:08.313Z,34.80
2017-04-17T12:22:08.247Z,35.30
2017-04-17T12:23:08.181Z,34.70
2017-04-17T12:24:08.151Z,36.10
2017-04-17T12:25:08.897Z,35.80
2017-04-17T12:26:08.837Z,34.90
2017-04-17T12:27:08.786Z,35.60
2017-04-17T12:28:08.755Z,34.50
2017-04-17T12:29:08.716Z,35.50
2017-04-17T12:30:09.507Z,34.70
2017-04-17T12:31:09.477Z,34.80
2017-04-17T12:32:09.439Z,32.90
2017-04-17T12:33:09.420Z,33.80
2017-04-17T12:34:09.400Z,33.00
2017-04-17T12:35:09.495Z,33.30
2017-04-17T12:36:09.452Z,32.80
2017-04-17T12:37:09.407Z,30.80
2017-04-17T12:38:10.105Z,34.00
2017-04-17T12:39:10.071Z,31.90
2017-04-17T12:40:10.041Z,31.50
2017-04-17T12:41:10.825Z,28.80
2017-04-17T12:42:10.740Z,27.40
2017-04-17T12:43:10.805Z,27.10
2017-04-17T12:44:10.750Z,26.90
2017-04-17T12:45:10.956Z,26.40
2017-04-17T12:46:10.956Z,25.10
2017-04-17T12:47:10.998Z,25.90
2017-04-17T12:48:11.012Z,24.90
2017-04-17T12:49:11.725Z,24.60
2017-04-17T12:50:11.697Z,24.20
2017-04-17T12:51:11.728Z,23.80
2017-04-17T12:52:11.726Z,24.30
2017-04-17T12:53:11.710Z,25.20
2017-04-17T12:54:11.692Z,25.30